createdAt,value
2022-10-19T00:03:23.229Z,91.40
2022-10-19T00:08:26.405Z,91.10
2022-10-19T00:13:29.358Z,90.70
2022-10-19T00:18:33.670Z,91.80
2022-10-19T00:23:36.878Z,91.80
2022-10-19T00:28:39.921Z,91.10
2022-10-19T00:33:47.571Z,91.00
2022-10-19T00:38:51.004Z,90.20
2022-10-19T00:44:00.206Z,90.60
2022-10-19T00:49:10.661Z,91.00
2022-10-19T00:54:14.990Z,90.40
2022-10-19T00:59:21.658Z,92.00
2022-10-19T01:04:28.022Z,92.50
2022-10-19T01:09:31.209Z,92.50
2022-10-19T01:14:44.328Z,92.30
2022-10-19T01:20:24.171Z,92.30
2022-10-19T01:25:40.700Z,92.30
2022-10-19T01:30:53.923Z,92.20
2022-10-19T01:36:07.317Z,92.10
2022-10-19T01:41:17.835Z,92.10
2022-10-19T01:46:27.348Z,91.70
2022-10-19T01:51:33.738Z,91.70
2022-10-19T01:56:38.779Z,91.50
2022-10-19T02:01:46.078Z,91.60
2022-10-19T02:06:49.354Z,91.80
2022-10-19T02:11:57.257Z,92.20
2022-10-19T02:17:06.362Z,92.10
2022-10-19T02:22:09.250Z,92.00
2022-10-19T02:27:12.504Z,92.10
2022-10-19T02:32:16.884Z,92.20
2022-10-19T02:37:22.138Z,92.10
2022-10-19T02:42:31.406Z,92.00
2022-10-19T02:47:38.517Z,92.00
2022-10-19T02:52:42.140Z,92.80
2022-10-19T02:57:45.327Z,92.80
2022-10-19T03:02:49.646Z,92.90
2022-10-19T03:07:52.593Z,92.80
2022-10-19T03:12:57.999Z,92.80
2022-10-19T03:18:02.300Z,93.30
2022-10-19T03:23:05.239Z,93.30
2022-10-19T03:28:08.178Z,93.40
2022-10-19T03:33:12.523Z,93.30
2022-10-19T03:38:15.627Z,93.00
2022-10-19T03:43:18.708Z,93.70
2022-10-19T03:48:22.986Z,94.50
2022-10-19T03:53:26.326Z,93.30
2022-10-19T03:58:29.301Z,93.60
2022-10-19T04:03:33.597Z,92.70
2022-10-19T04:08:37.048Z,93.30
2022-10-19T04:13:40.014Z,92.20
2022-10-19T04:18:44.431Z,92.50
2022-10-19T04:23:47.399Z,92.30
2022-10-19T04:28:50.512Z,93.00
2022-10-19T04:33:55.242Z,92.90
2022-10-19T04:38:58.271Z,93.40
2022-10-19T04:44:02.900Z,93.10
2022-10-19T04:49:07.742Z,93.50
2022-10-19T04:54:10.676Z,93.90
2022-10-19T04:59:13.615Z,93.50
2022-10-19T05:04:19.669Z,93.30
2022-10-19T05:09:22.626Z,93.60
2022-10-19T05:14:25.760Z,93.80
2022-10-19T05:19:30.049Z,93.40
2022-10-19T05:24:33.230Z,93.60
2022-10-19T05:29:36.185Z,94.00
2022-10-19T05:34:40.641Z,94.10
2022-10-19T05:39:43.629Z,94.00
2022-10-19T05:44:46.579Z,93.90
2022-10-19T05:49:50.878Z,94.60
2022-10-19T05:54:54.072Z,94.40
2022-10-19T05:59:58.412Z,94.80
2022-10-19T06:05:02.831Z,94.50
2022-10-19T06:10:06.563Z,94.50
2022-10-19T06:15:10.214Z,94.60
2022-10-19T06:20:14.798Z,95.00
2022-10-19T06:25:20.236Z,94.40
2022-10-19T06:30:23.563Z,94.30
2022-10-19T06:35:28.092Z,94.30
2022-10-19T06:40:31.049Z,94.30
2022-10-19T06:45:35.981Z,94.60
2022-10-19T06:50:40.459Z,94.40
2022-10-19T06:55:43.380Z,94.60
2022-10-19T07:00:46.400Z,94.30
2022-10-19T07:05:55.753Z,93.60
2022-10-19T07:11:00.351Z,93.10
2022-10-19T07:16:06.779Z,92.80
2022-10-19T07:21:12.518Z,93.20
2022-10-19T07:26:17.486Z,92.90
2022-10-19T07:31:24.870Z,93.00
2022-10-19T07:36:30.475Z,92.60
2022-10-19T07:41:34.688Z,92.80
2022-10-19T07:46:38.631Z,92.80
2022-10-19T07:51:43.387Z,91.40
2022-10-19T07:56:46.332Z,92.10
2022-10-19T08:01:50.230Z,90.90
2022-10-19T08:06:54.557Z,90.70
2022-10-19T08:11:58.112Z,91.10
2022-10-19T08:17:01.648Z,89.60
2022-10-19T08:22:05.935Z,90.20
2022-10-19T08:27:09.578Z,89.80
2022-10-19T08:32:12.595Z,89.70
2022-10-19T08:37:26.391Z,89.10
2022-10-19T08:42:54.570Z,89.10
2022-10-19T08:48:04.326Z,88.20
2022-10-19T08:53:15.558Z,86.30
2022-10-19T08:58:31.941Z,86.10
2022-10-19T09:03:54.905Z,85.90
2022-10-19T09:09:01.060Z,84.50
2022-10-19T09:14:07.639Z,84.70
2022-10-19T09:19:16.474Z,83.60
2022-10-19T09:24:30.555Z,84.60
2022-10-19T09:29:40.044Z,82.90
2022-10-19T09:34:45.594Z,83.70
2022-10-19T09:39:54.791Z,83.70
2022-10-19T09:45:00.744Z,84.70
2022-10-19T09:50:18.649Z,84.60
2022-10-19T09:55:28.534Z,82.00
2022-10-19T10:00:37.911Z,78.90
2022-10-19T10:05:42.354Z,79.90
2022-10-19T10:10:49.313Z,81.40
2022-10-19T10:15:57.646Z,80.00
2022-10-19T10:21:07.048Z,79.40
2022-10-19T10:26:20.500Z,82.10
2022-10-19T10:31:27.453Z,79.00
2022-10-19T10:36:31.477Z,79.30
2022-10-19T10:41:41.421Z,80.10
2022-10-19T10:46:51.657Z,80.60
2022-10-19T10:51:58.514Z,79.60
2022-10-19T10:57:14.247Z,78.10
2022-10-19T11:02:28.513Z,74.80
2022-10-19T11:07:35.625Z,73.50
2022-10-19T11:12:46.298Z,72.90
2022-10-19T11:18:16.676Z,73.40
2022-10-19T11:23:27.752Z,73.20
2022-10-19T11:28:48.255Z,73.60
2022-10-19T11:33:57.871Z,72.30
2022-10-19T11:39:17.140Z,73.20
2022-10-19T11:44:34.466Z,70.10
2022-10-19T11:49:51.493Z,70.60
2022-10-19T11:55:03.525Z,68.10
2022-10-19T12:00:15.387Z,70.00
2022-10-19T12:05:35.466Z,69.00
2022-10-19T12:10:41.215Z,69.10
2022-10-19T12:15:48.518Z,66.90
2022-10-19T12:20:55.305Z,64.00
2022-10-19T12:26:00.237Z,63.90
2022-10-19T12:31:06.772Z,61.50
2022-10-19T12:36:23.266Z,63.90
2022-10-19T12:41:32.390Z,62.60
2022-10-19T12:46:42.477Z,61.10
2022-10-19T12:51:47.031Z,60.40
2022-10-19T12:56:53.477Z,60.70
2022-10-19T13:01:58.872Z,60.30
2022-10-19T13:07:03.827Z,61.40
2022-10-19T13:12:44.099Z,61.00
2022-10-19T13:17:50.982Z,59.10
2022-10-19T13:23:32.533Z,58.50
2022-10-19T13:28:40.243Z,57.60
2022-10-19T13:33:50.870Z,58.50
2022-10-19T13:39:12.662Z,58.20
2022-10-19T13:44:25.050Z,59.40
2022-10-19T13:49:53.083Z,57.40
2022-10-19T13:55:25.011Z,58.20
2022-10-19T14:00:36.282Z,55.90
2022-10-19T14:05:55.534Z,56.80
2022-10-19T14:11:03.417Z,56.50
2022-10-19T14:16:10.410Z,56.90
2022-10-19T14:21:13.407Z,57.20
2022-10-19T14:26:24.066Z,56.60
2022-10-19T14:31:34.859Z,55.70
2022-10-19T14:36:40.734Z,56.50
2022-10-19T14:41:44.083Z,56.60
2022-10-19T14:46:49.977Z,57.50
2022-10-19T14:51:57.403Z,58.80
2022-10-19T14:57:03.262Z,58.80
2022-10-19T15:02:18.172Z,58.80
2022-10-19T15:07:25.381Z,59.20
2022-10-19T15:12:32.507Z,60.20
2022-10-19T15:17:47.716Z,61.10
2022-10-19T15:22:50.915Z,60.50
2022-10-19T15:27:54.306Z,60.80
2022-10-19T15:33:14.031Z,62.00
2022-10-19T15:38:22.702Z,60.80
2022-10-19T15:43:37.687Z,61.80
2022-10-19T15:48:52.282Z,61.60
2022-10-19T15:53:59.774Z,61.80
2022-10-19T15:59:05.330Z,62.70
2022-10-19T16:04:10.394Z,63.30
2022-10-19T16:09:20.593Z,63.70
2022-10-19T16:14:23.608Z,65.50
2022-10-19T16:19:27.979Z,65.50
2022-10-19T16:24:30.927Z,66.20
2022-10-19T16:29:34.001Z,66.20
2022-10-19T16:34:38.286Z,66.90
2022-10-19T16:39:41.319Z,67.30
2022-10-19T16:44:45.135Z,67.40
2022-10-19T16:49:49.439Z,69.50
2022-10-19T16:54:52.424Z,69.40
2022-10-19T16:59:55.592Z,69.30
2022-10-19T17:04:59.889Z,69.10
2022-10-19T17:10:02.970Z,70.10
2022-10-19T17:15:37.165Z,71.00
2022-10-19T17:20:32.889Z,72.00
2022-10-19T17:25:35.841Z,72.40
2022-10-19T17:30:42.165Z,73.30
2022-10-19T17:35:46.821Z,73.00
2022-10-19T17:40:50.031Z,73.90
2022-10-19T17:45:59.158Z,74.30
2022-10-19T17:51:05.887Z,74.90
2022-10-19T17:56:09.953Z,76.00
2022-10-19T18:01:13.668Z,76.70
2022-10-19T18:06:20.666Z,76.80
2022-10-19T18:11:25.679Z,76.20
2022-10-19T18:16:30.594Z,76.80
2022-10-19T18:21:38.776Z,77.20
2022-10-19T18:26:41.771Z,76.70
2022-10-19T18:31:44.843Z,76.50
2022-10-19T18:36:50.187Z,76.50
2022-10-19T18:41:54.574Z,77.30
2022-10-19T18:46:58.157Z,76.50
2022-10-19T18:52:02.450Z,76.80
2022-10-19T18:57:05.417Z,77.10
2022-10-19T19:02:13.737Z,77.60
2022-10-19T19:07:27.010Z,77.50
2022-10-19T19:12:31.116Z,77.00
2022-10-19T19:17:34.061Z,76.90
2022-10-19T19:22:38.507Z,77.80
2022-10-19T19:27:41.623Z,78.00
2022-10-19T19:32:44.791Z,78.20
2022-10-19T19:37:49.068Z,79.00
2022-10-19T19:42:52.015Z,79.40
2022-10-19T19:47:54.960Z,79.80
2022-10-19T19:52:59.386Z,79.80
2022-10-19T19:58:02.562Z,79.50
2022-10-19T20:03:05.660Z,79.10
2022-10-19T20:08:10.291Z,79.10
2022-10-19T20:13:13.327Z,79.20
2022-10-19T20:18:16.269Z,78.90
2022-10-19T20:23:20.385Z,79.50
2022-10-19T20:28:23.389Z,79.80
2022-10-19T20:33:26.353Z,80.20
2022-10-19T20:38:30.642Z,80.30
2022-10-19T20:43:34.205Z,80.20
2022-10-19T20:48:37.164Z,80.70
2022-10-19T20:53:41.343Z,80.80
2022-10-19T20:58:45.175Z,80.90
2022-10-19T21:03:50.854Z,81.50
2022-10-19T21:08:55.379Z,82.00
2022-10-19T21:13:59.757Z,82.30
2022-10-19T21:19:03.818Z,82.00
2022-10-19T21:24:11.616Z,82.60
2022-10-19T21:29:16.530Z,82.70
2022-10-19T21:34:21.114Z,82.90
2022-10-19T21:39:25.841Z,82.70
2022-10-19T21:44:28.770Z,82.60
2022-10-19T21:49:31.698Z,83.30
2022-10-19T21:54:36.027Z,83.10
2022-10-19T21:59:39.223Z,83.30
2022-10-19T22:04:42.181Z,82.90
2022-10-19T22:09:46.631Z,83.00
2022-10-19T22:14:49.608Z,83.40
2022-10-19T22:19:52.582Z,83.20
2022-10-19T22:24:56.887Z,83.60
2022-10-19T22:29:59.839Z,83.60
2022-10-19T22:35:02.808Z,83.40
2022-10-19T22:40:08.289Z,84.20
2022-10-19T22:45:11.187Z,84.00
2022-10-19T22:50:14.089Z,84.50
2022-10-19T22:55:18.507Z,83.90
2022-10-19T23:00:21.454Z,84.00
2022-10-19T23:05:24.771Z,84.00
2022-10-19T23:10:29.064Z,84.20
2022-10-19T23:15:31.959Z,84.40
2022-10-19T23:20:34.887Z,84.30
2022-10-19T23:25:39.139Z,84.50
2022-10-19T23:30:42.017Z,84.70
2022-10-19T23:35:44.925Z,85.00
2022-10-19T23:40:49.359Z,85.10
2022-10-19T23:45:52.351Z,85.50
2022-10-19T23:51:00.197Z,85.90
2022-10-19T23:56:07.337Z,85.50
